Time;durP1;ratioP1;P1;durP2;ratioP2;P2;SDS_P1;SDS_P2;PMS_P1;PMS_P2;Temp;Humidity;BMP_temperature;BMP_pressure;BME280_temperature;BME280_humidity;BME280_pressure;Samples;Min_cycle;Max_cycle;Signal;HPM_P1;HPM_P2
2022/06/26 00:00:27;;;;;;;4.63;4.23;;;;;;;21.53;48.65;100715.72;1618671;86;21101;-80
2022/06/26 00:02:53;;;;;;;4.97;4.47;;;;;;;21.46;48.73;100716.56;1627013;87;21093;-80
2022/06/26 00:05:19;;;;;;;8.67;5.10;;;;;;;21.37;48.87;100723.21;1620134;86;21049;-81
2022/06/26 00:07:46;;;;;;;7.37;5.13;;;;;;;21.37;48.97;100722.36;1629052;87;21165;-81
2022/06/26 00:10:14;;;;;;;6.92;5.00;;;;;;;21.37;49.01;100730.26;1619441;86;21352;-81
2022/06/26 00:12:40;;;;;;;8.45;4.53;;;;;;;21.37;49.07;100727.16;1647014;86;21085;-80
2022/06/26 00:15:08;;;;;;;5.87;4.80;;;;;;;21.37;49.08;100727.63;1632167;85;21084;-80
2022/06/26 00:17:34;;;;;;;6.12;4.85;;;;;;;21.32;49.11;100724.41;1630389;88;20903;-80
2022/06/26 00:20:00;;;;;;;8.03;5.03;;;;;;;21.25;49.20;100732.32;1618583;86;21010;-80
2022/06/26 00:22:27;;;;;;;5.30;4.80;;;;;;;21.13;49.25;100738.63;1657345;84;20934;-80
2022/06/26 00:24:53;;;;;;;5.42;4.90;;;;;;;21.06;49.38;100736.45;1657051;86;20974;-80
2022/06/26 00:27:25;;;;;;;5.10;4.67;;;;;;;20.98;49.53;100740.83;1644196;85;20933;-80
2022/06/26 00:29:51;;;;;;;6.83;4.33;;;;;;;20.87;49.68;100735.33;1630276;87;20930;-80
2022/06/26 00:32:17;;;;;;;5.60;5.10;;;;;;;20.88;49.75;100738.81;1633200;85;20897;-80
2022/06/26 00:34:44;;;;;;;;;;;;;;;20.86;49.82;100732.79;1638532;86;20906;-80
2022/06/26 00:37:10;;;;;;;5.30;4.65;;;;;;;20.82;50.21;100736.91;1630372;87;20219;-80
2022/06/26 00:39:36;;;;;;;6.53;5.73;;;;;;;20.83;49.91;100742.54;1656190;85;20930;-80
2022/06/26 00:42:03;;;;;;;10.23;6.77;;;;;;;20.71;49.85;100722.23;1637625;85;21635;-80
2022/06/26 00:44:30;;;;;;;11.18;6.30;;;;;;;20.70;50.04;100739.41;1656880;86;20958;-80
2022/06/26 00:46:56;;;;;;;7.83;6.10;;;;;;;20.65;50.14;100739.66;1657080;85;20986;-80
2022/06/26 00:49:23;;;;;;;7.67;6.58;;;;;;;20.62;50.21;100739.83;1656876;86;26569;-80
2022/06/26 00:51:52;;;;;;;8.20;5.80;;;;;;;20.55;50.35;100733.69;1635441;85;20977;-80
2022/06/26 00:54:20;;;;;;;7.60;6.37;;;;;;;20.54;50.42;100740.72;1666109;85;21225;-80
2022/06/26 00:56:47;;;;;;;13.00;6.28;;;;;;;20.53;50.53;100742.97;1631546;86;20994;-80
2022/06/26 00:59:14;;;;;;;7.78;5.67;;;;;;;20.52;50.57;100744.36;1630130;86;20910;-80
2022/06/26 01:01:40;;;;;;;;;;;;;;;20.48;50.63;100745.84;1622430;86;20964;-80
2022/06/26 01:04:07;;;;;;;13.50;5.37;;;;;;;20.44;50.98;100744.31;1608034;87;20130;-80
2022/06/26 01:06:34;;;;;;;12.75;5.90;;;;;;;20.43;50.75;100743.09;1630551;85;20943;-80
2022/06/26 01:09:01;;;;;;;9.70;5.05;;;;;;;20.41;50.80;100749.73;1647833;85;20947;-80
2022/06/26 01:11:28;;;;;;;9.80;6.22;;;;;;;20.39;50.89;100749.44;1635202;85;28141;-80
2022/06/26 01:13:55;;;;;;;;;;;;;;;20.37;50.93;100748.17;1632807;85;20907;-80
2022/06/26 01:16:23;;;;;;;8.35;5.00;;;;;;;20.35;51.34;100748.73;1647535;87;20100;-80
2022/06/26 01:18:53;;;;;;;9.15;5.12;;;;;;;20.30;51.04;100749.44;1635109;84;20937;-80
2022/06/26 01:21:21;;;;;;;9.58;5.42;;;;;;;20.25;51.15;100751.96;1684194;83;20917;-80
2022/06/26 01:23:48;;;;;;;6.22;4.60;;;;;;;20.15;51.20;100750.30;1630824;86;20967;-80
2022/06/26 01:26:15;;;;;;;;;;;;;;;20.10;51.39;100749.69;1659186;85;20983;-80
2022/06/26 01:28:42;;;;;;;8.08;5.28;;;;;;;20.07;51.79;100753.33;1699480;84;20146;-80
2022/06/26 01:31:08;;;;;;;15.57;5.77;;;;;;;20.05;51.46;100751.25;1666680;83;21141;-80
2022/06/26 01:33:36;;;;;;;7.00;4.93;;;;;;;20.06;51.52;100748.16;1662767;85;21165;-80
2022/06/26 01:36:04;;;;;;;5.53;5.03;;;;;;;20.00;51.60;100747.16;1638552;85;20933;-80
2022/06/26 01:38:30;;;;;;;5.10;4.67;;;;;;;19.92;51.74;100754.13;1690577;83;20966;-80
2022/06/26 01:40:57;;;;;;;5.53;5.13;;;;;;;19.89;51.82;100753.44;1677751;84;21029;-80
2022/06/26 01:43:29;;;;;;;;;;;;;;;19.86;51.92;100747.89;1664315;83;21121;-80
2022/06/26 01:45:57;;;;;;;4.75;4.35;;;;;;;19.87;52.30;100748.73;1670868;84;20133;-80
2022/06/26 01:48:25;;;;;;;9.25;4.95;;;;;;;19.83;51.94;100746.73;1690414;84;20910;-80
2022/06/26 01:50:52;;;;;;;5.50;5.00;;;;;;;19.81;52.07;100752.06;1659559;85;20944;-80
2022/06/26 01:53:18;;;;;;;5.87;4.65;;;;;;;19.78;52.13;100748.28;1649616;85;21038;-80
2022/06/26 01:55:46;;;;;;;5.80;5.17;;;;;;;19.74;52.23;100748.55;1672064;84;20965;-80
2022/06/26 01:58:13;;;;;;;9.80;5.05;;;;;;;19.70;52.29;100751.80;1672242;84;21088;-80
2022/06/26 02:00:42;;;;;;;7.83;5.60;;;;;;;19.65;52.41;100758.21;1650160;86;21082;-80
2022/06/26 02:03:10;;;;;;;6.78;5.72;;;;;;;19.59;52.45;100758.06;1653267;85;20978;-80
2022/06/26 02:05:37;;;;;;;6.85;5.97;;;;;;;19.43;52.59;100763.20;1690813;84;20929;-80
2022/06/26 02:08:05;;;;;;;6.50;5.83;;;;;;;19.41;52.79;100763.73;1656153;85;20979;-80
2022/06/26 02:13:50;;;;;;;6.80;5.45;;;;;;;19.50;52.92;100756.72;1631201;88;20995;-80
2022/06/26 02:15:51;;;;;;;7.42;5.20;;;;;;;19.48;52.96;100758.57;1645994;85;21382;-80
2022/06/26 02:18:18;;;;;;;6.28;5.67;;;;;;;19.48;53.04;100765.13;1666560;84;20902;-81
2022/06/26 02:20:45;;;;;;;8.15;5.45;;;;;;;19.48;53.12;100766.44;1620399;86;25101;-81
2022/06/26 02:23:12;;;;;;;5.78;5.28;;;;;;;19.45;53.18;100767.05;1631310;86;20890;-81
2022/06/26 02:25:39;;;;;;;5.97;5.47;;;;;;;19.45;53.29;100770.52;1630966;87;21422;-80
2022/06/26 02:28:06;;;;;;;5.20;4.80;;;;;;;19.44;53.38;100767.52;1630938;86;20906;-80
2022/06/26 02:30:32;;;;;;;6.80;5.53;;;;;;;19.47;53.37;100774.38;1621644;86;21372;-81
2022/06/26 02:32:59;;;;;;;5.75;5.17;;;;;;;19.45;53.39;100778.39;1623200;88;20883;-81
2022/06/26 02:35:28;;;;;;;7.87;5.30;;;;;;;19.44;53.48;100781.09;1630686;86;20902;-80
2022/06/26 02:37:54;;;;;;;;;;;;;;;19.44;53.58;100781.94;1633325;88;20910;-80
2022/06/26 02:40:22;;;;;;;7.40;5.45;;;;;;;19.45;53.97;100780.17;1628180;86;20104;-80
2022/06/26 02:42:48;;;;;;;5.40;5.00;;;;;;;19.44;53.65;100786.34;1624187;86;20922;-81
2022/06/26 02:45:15;;;;;;;6.37;5.80;;;;;;;19.45;53.70;100784.10;1625323;86;20914;-80
2022/06/26 02:47:45;;;;;;;6.97;4.87;;;;;;;19.44;53.77;100788.50;1616353;88;21234;-80
2022/06/26 02:50:11;;;;;;;6.03;5.37;;;;;;;19.46;53.81;100792.36;1614934;86;21455;-80
2022/06/26 02:52:38;;;;;;;6.55;5.25;;;;;;;19.46;53.91;100781.86;1631330;86;20978;-80
2022/06/26 02:55:05;;;;;;;;;;;;;;;19.44;53.90;100790.27;1626233;87;20938;-80
2022/06/26 02:57:32;;;;;;;5.50;5.00;;;;;;;19.41;54.40;100788.65;1615806;86;20100;-80
2022/06/26 02:59:58;;;;;;;7.70;7.00;;;;;;;19.45;54.12;100786.72;1625722;86;20902;-80
2022/06/26 03:02:27;;;;;;;8.25;6.08;;;;;;;19.49;54.09;100797.45;1629283;87;20974;-80
2022/06/26 03:04:53;;;;;;;7.65;6.65;;;;;;;19.47;54.16;100795.37;1627957;86;20974;-80
2022/06/26 03:07:20;;;;;;;7.85;7.15;;;;;;;19.51;54.16;100798.25;1631072;86;21039;-80
2022/06/26 03:09:47;;;;;;;8.20;6.50;;;;;;;19.52;54.24;100800.41;1623951;86;20922;-80
2022/06/26 03:12:14;;;;;;;6.65;5.92;;;;;;;19.55;54.29;100805.51;1633651;86;20973;-80
2022/06/26 03:14:41;;;;;;;6.00;5.50;;;;;;;19.53;54.33;100808.67;1617898;87;21046;-80
2022/06/26 03:17:07;;;;;;;11.25;6.65;;;;;;;19.50;54.33;100808.33;1638419;86;20898;-80
2022/06/26 03:19:33;;;;;;;7.00;5.97;;;;;;;19.47;54.47;100807.16;1619503;86;21600;-80
2022/06/26 03:21:59;;;;;;;6.40;5.90;;;;;;;19.52;54.52;100814.38;1652215;85;20945;-80
2022/06/26 03:24:33;;;;;;;6.45;5.80;;;;;;;19.57;54.57;100812.38;1668252;84;20954;-80
2022/06/26 03:27:00;;;;;;;7.35;6.00;;;;;;;19.61;54.62;100811.30;1652848;85;20969;-80
2022/06/26 03:29:26;;;;;;;9.43;5.90;;;;;;;19.68;54.65;100815.31;1662989;84;20969;-80
2022/06/26 03:31:53;;;;;;;7.25;5.92;;;;;;;19.72;54.65;100809.45;1653325;83;20968;-80
2022/06/26 03:34:19;;;;;;;7.20;5.33;;;;;;;19.70;54.68;100808.21;1676318;84;23619;-80
2022/06/26 03:36:45;;;;;;;7.43;5.67;;;;;;;19.71;54.84;100816.93;1690655;84;20977;-80
2022/06/26 03:39:12;;;;;;;6.50;5.90;;;;;;;19.77;54.85;100813.97;1678848;85;20957;-80
2022/06/26 03:41:38;;;;;;;5.83;5.27;;;;;;;19.78;54.92;100812.58;1647443;85;20905;-80
2022/06/26 03:44:06;;;;;;;6.42;5.83;;;;;;;19.84;54.98;100811.41;1678963;85;20917;-80
2022/06/26 03:46:33;;;;;;;6.87;6.08;;;;;;;19.86;55.04;100816.13;1647250;86;20940;-80
2022/06/26 03:49:02;;;;;;;5.70;5.30;;;;;;;19.88;55.06;100816.05;1646471;85;20938;-80
2022/06/26 03:51:29;;;;;;;6.90;5.60;;;;;;;19.91;55.18;100815.42;1660238;85;21119;-80
2022/06/26 03:53:55;;;;;;;9.37;5.47;;;;;;;19.98;55.23;100813.34;1649584;85;21131;-80
2022/06/26 03:56:21;;;;;;;6.93;5.50;;;;;;;20.05;55.26;100806.84;1656164;85;20936;-80
2022/06/26 03:58:47;;;;;;;6.57;5.40;;;;;;;20.14;55.30;100814.23;1664275;84;21001;-80
2022/06/26 04:01:13;;;;;;;6.33;5.73;;;;;;;20.20;55.28;100812.60;1637637;85;21280;-81
2022/06/26 04:03:39;;;;;;;6.40;5.73;;;;;;;20.22;55.32;100809.43;1625153;87;21092;-81
2022/06/26 04:06:11;;;;;;;6.97;5.45;;;;;;;20.25;55.41;100814.52;1674939;82;21051;-81
2022/06/26 04:08:37;;;;;;;8.87;6.27;;;;;;;20.36;55.43;100817.39;1668491;84;20963;-81
2022/06/26 04:11:03;;;;;;;6.20;5.60;;;;;;;20.47;55.47;100819.02;1670374;84;21110;-81
2022/06/26 04:13:35;;;;;;;6.30;5.80;;;;;;;20.66;55.57;100825.45;1698448;84;21143;-81
2022/06/26 04:16:01;;;;;;;7.87;5.70;;;;;;;20.95;55.59;100822.97;1654412;85;21106;-81
2022/06/26 04:18:27;;;;;;;6.83;5.70;;;;;;;21.17;55.46;100819.98;1703713;84;21069;-81
2022/06/26 04:20:53;;;;;;;7.90;5.50;;;;;;;21.33;55.47;100822.12;1683497;84;21768;-81
2022/06/26 04:23:19;;;;;;;6.33;5.80;;;;;;;21.46;55.41;100820.48;1656059;85;20923;-81
2022/06/26 04:25:45;;;;;;;6.33;5.83;;;;;;;21.52;55.36;100826.71;1655952;85;21048;-81
2022/06/26 04:28:11;;;;;;;5.80;5.22;;;;;;;21.55;55.36;100827.84;1658045;85;21136;-81
2022/06/26 04:30:38;;;;;;;6.83;5.65;;;;;;;21.66;55.46;100833.80;1629179;86;21053;-81
2022/06/26 04:33:04;;;;;;;7.10;6.30;;;;;;;21.83;55.44;100837.61;1638470;87;21111;-81
2022/06/26 04:35:31;;;;;;;6.13;5.53;;;;;;;21.92;55.31;100826.97;1638676;85;21068;-81
2022/06/26 04:37:59;;;;;;;6.78;5.58;;;;;;;21.95;55.29;100828.11;1638021;86;20942;-81
2022/06/26 04:40:25;;;;;;;7.25;5.33;;;;;;;22.00;55.31;100833.48;1621359;86;21037;-81
2022/06/26 04:42:51;;;;;;;7.25;5.42;;;;;;;22.07;55.25;100826.09;1662701;86;21109;-81
2022/06/26 04:45:17;;;;;;;6.40;5.67;;;;;;;22.06;55.21;100833.14;1651479;86;21157;-81
2022/06/26 04:47:44;;;;;;;6.13;5.63;;;;;;;22.06;55.29;100830.51;1632836;84;22234;-80
2022/06/26 04:50:11;;;;;;;5.80;5.30;;;;;;;22.14;55.20;100840.58;1621063;86;20957;-81
2022/06/26 04:52:37;;;;;;;6.27;5.60;;;;;;;22.18;55.14;100837.30;1606234;88;20918;-81
2022/06/26 04:55:04;;;;;;;5.77;5.20;;;;;;;22.22;55.17;100834.85;1641235;85;21069;-81
2022/06/26 04:57:43;;;;;;;7.08;6.00;;;;;;;22.35;55.24;100844.55;1640175;85;21104;-81
2022/06/26 05:00:13;;;;;;;7.87;5.85;;;;;;;22.51;55.04;100844.89;1639458;86;21056;-80
2022/06/26 05:02:40;;;;;;;6.05;5.40;;;;;;;22.65;55.04;100840.45;1631148;85;21414;-80
2022/06/26 05:05:09;;;;;;;7.55;6.45;;;;;;;22.90;55.08;100845.03;1618088;86;21702;-80
2022/06/26 05:07:35;;;;;;;12.33;5.80;;;;;;;23.25;54.97;100848.52;1650955;86;20893;-80
2022/06/26 05:10:02;;;;;;;7.33;5.57;;;;;;;23.58;54.81;100851.59;1650919;86;21656;-80
2022/06/26 05:12:29;;;;;;;6.22;5.65;;;;;;;23.99;54.77;100858.51;1635175;86;22278;-81
2022/06/26 05:14:55;;;;;;;7.03;5.47;;;;;;;24.47;54.58;100858.73;1608786;86;20990;-81
2022/06/26 05:17:20;;;;;;;6.33;5.67;;;;;;;24.93;54.50;100858.95;1600457;88;20950;-81
2022/06/26 05:19:46;;;;;;;9.83;6.17;;;;;;;25.36;54.25;100859.33;1632963;85;21412;-81
2022/06/26 05:22:13;;;;;;;8.77;6.23;;;;;;;25.84;54.15;100860.60;1653041;85;20888;-81
2022/06/26 05:24:39;;;;;;;7.70;5.75;;;;;;;26.23;53.83;100857.52;1679839;83;22229;-81
2022/06/26 05:27:12;;;;;;;6.62;5.80;;;;;;;26.54;53.60;100863.92;1690526;83;21536;-81
2022/06/26 05:29:38;;;;;;;6.85;5.92;;;;;;;26.94;53.54;100866.91;1684576;84;22196;-81
2022/06/26 05:32:04;;;;;;;11.57;5.27;;;;;;;27.41;53.33;100868.00;1670479;85;21176;-81
2022/06/26 05:34:34;;;;;;;7.95;5.67;;;;;;;27.83;53.10;100882.19;1663185;85;21522;-81
2022/06/26 05:37:01;;;;;;;7.08;5.67;;;;;;;28.28;52.93;100876.11;1679460;83;21580;-81
2022/06/26 05:39:27;;;;;;;7.33;5.58;;;;;;;28.65;52.61;100877.23;1655287;85;21634;-81
2022/06/26 05:41:53;;;;;;;13.30;5.60;;;;;;;28.95;52.31;100873.72;1647819;85;20921;-81
2022/06/26 05:44:19;;;;;;;8.25;5.78;;;;;;;29.13;51.98;100881.02;1687077;83;22304;-81
2022/06/26 05:46:45;;;;;;;7.60;5.37;;;;;;;29.31;51.70;100886.02;1669272;84;21578;-80
2022/06/26 05:49:11;;;;;;;6.28;5.40;;;;;;;29.59;51.40;100883.05;1650035;85;21584;-80
2022/06/26 05:51:37;;;;;;;8.48;5.42;;;;;;;29.86;51.07;100876.98;1661950;84;21523;-80
2022/06/26 05:54:03;;;;;;;8.83;5.15;;;;;;;30.09;50.76;100878.87;1657039;85;21621;-80
2022/06/26 05:56:29;;;;;;;6.33;4.50;;;;;;;30.31;50.31;100874.49;1669043;84;20984;-80
2022/06/26 05:58:55;;;;;;;6.62;4.83;;;;;;;30.56;50.10;100875.17;1652867;85;22327;-80
2022/06/26 06:01:22;;;;;;;5.67;4.95;;;;;;;30.81;49.68;100880.81;1681916;83;22356;-80
2022/06/26 06:03:48;;;;;;;5.75;4.35;;;;;;;31.05;49.33;100879.77;1686361;83;22204;-81
2022/06/26 06:06:14;;;;;;;7.53;4.00;;;;;;;31.33;48.96;100882.39;1667235;84;20905;-81
2022/06/26 06:08:39;;;;;;;5.60;4.08;;;;;;;31.60;48.51;100880.48;1672584;84;21016;-81
2022/06/26 06:11:06;;;;;;;5.08;4.15;;;;;;;31.88;48.10;100886.56;1664770;85;21174;-81
2022/06/26 06:13:32;;;;;;;4.42;4.10;;;;;;;32.27;47.76;100880.81;1682821;83;21673;-81
2022/06/26 06:15:58;;;;;;;4.15;3.70;;;;;;;32.77;47.29;100888.09;1679539;83;21529;-81
2022/06/26 06:18:27;;;;;;;4.15;3.80;;;;;;;33.08;46.26;100889.70;1679578;83;21072;-80
2022/06/26 06:20:53;;;;;;;11.70;4.42;;;;;;;33.49;46.07;100897.31;1673147;83;20942;-80
2022/06/26 06:23:20;;;;;;;4.60;4.20;;;;;;;34.21;45.74;100888.89;1663599;84;27746;-80
2022/06/26 06:25:46;;;;;;;7.37;4.45;;;;;;;34.82;44.69;100898.96;1665708;84;21504;-80
2022/06/26 06:28:12;;;;;;;14.20;4.97;;;;;;;35.21;43.68;100897.21;1660754;84;21518;-78
2022/06/26 06:30:38;;;;;;;6.47;4.05;;;;;;;35.59;43.48;100897.61;1662831;84;21068;-78
2022/06/26 06:33:04;;;;;;;5.20;4.80;;;;;;;35.95;42.81;100898.31;1667646;84;21076;-78
2022/06/26 06:35:30;;;;;;;;;;;;;;;36.42;42.24;100905.56;1658005;84;21752;-78
2022/06/26 06:38:00;;;;;;;4.45;4.15;;;;;;;36.82;40.86;100906.64;1659230;84;20224;-76
2022/06/26 06:40:26;;;;;;;;;;;;;;;37.22;41.68;100906.08;1648814;84;21077;-76
2022/06/26 06:42:52;;;;;;;5.20;4.15;;;;;;;37.47;40.43;100906.52;1666970;83;20153;-76
2022/06/26 06:45:19;;;;;;;9.45;4.42;;;;;;;37.71;40.46;100912.06;1687082;82;20925;-76
2022/06/26 06:47:45;;;;;;;6.35;4.37;;;;;;;38.05;39.93;100916.15;1691540;83;20953;-76
2022/06/26 06:50:11;;;;;;;5.08;4.55;;;;;;;38.53;39.36;100915.42;1695996;83;20934;-76
2022/06/26 06:52:37;;;;;;;;;;;;;;;38.85;38.87;100922.88;1694239;84;20925;-76
2022/06/26 06:55:05;;;;;;;8.65;3.72;;;;;;;39.20;35.15;100914.67;1691387;83;20224;-76
2022/06/26 06:57:31;;;;;;;5.12;4.62;;;;;;;39.23;37.79;100923.22;1702324;83;20893;-76
2022/06/26 06:59:57;;;;;;;8.00;4.47;;;;;;;39.31;37.27;100927.61;1692210;83;20909;-76
2022/06/26 07:02:31;;;;;;;4.22;3.83;;;;;;;39.61;36.88;100919.95;1693629;82;20922;-79
2022/06/26 07:04:57;;;;;;;4.53;4.12;;;;;;;39.71;36.12;100922.56;1686753;83;20910;-79
2022/06/26 07:07:24;;;;;;;4.80;4.35;;;;;;;39.82;35.84;100924.34;1691065;83;20974;-76
2022/06/26 07:09:49;;;;;;;5.12;4.42;;;;;;;39.75;35.04;100917.56;1691765;83;20954;-76
2022/06/26 07:12:15;;;;;;;;;;;;;;;39.99;35.11;100921.55;1694649;83;20887;-76
2022/06/26 07:14:48;;;;;;;4.20;3.90;;;;;;;40.23;34.73;100917.31;1687932;84;20106;-77
2022/06/26 07:17:14;;;;;;;5.00;4.00;;;;;;;40.05;33.78;100916.61;1690428;83;20898;-76
2022/06/26 07:19:41;;;;;;;4.87;3.95;;;;;;;39.87;33.58;100919.13;1703656;83;20857;-76
2022/06/26 07:22:07;;;;;;;8.23;4.25;;;;;;;40.10;33.38;100913.27;1688956;82;20942;-76
2022/06/26 07:24:34;;;;;;;3.98;3.67;;;;;;;40.33;32.88;100920.45;1675579;84;20951;-76
2022/06/26 07:26:59;;;;;;;;;;;;;;;40.66;32.46;100919.80;1678261;85;20888;-76
2022/06/26 07:29:26;;;;;;;3.75;3.45;;;;;;;40.74;32.10;100916.55;1676373;85;20130;-76
2022/06/26 07:31:52;;;;;;;;;;;;;;;40.88;31.84;100911.41;1651841;85;20957;-76
2022/06/26 07:34:25;;;;;;;7.47;4.10;;;;;;;41.23;29.82;100912.67;1643738;86;20103;-76
2022/06/26 07:36:52;;;;;;;4.28;3.70;;;;;;;41.45;31.13;100913.67;1646522;86;20987;-76
2022/06/26 07:39:20;;;;;;;3.65;3.35;;;;;;;41.36;30.36;100909.56;1645779;86;20924;-76
2022/06/26 07:41:55;;;;;;;3.62;3.37;;;;;;;40.86;30.07;100901.29;1641624;85;20906;-76
2022/06/26 07:44:21;;;;;;;3.87;3.58;;;;;;;40.13;29.79;100904.20;1645625;85;20944;-76
2022/06/26 07:46:47;;;;;;;3.77;3.47;;;;;;;39.49;29.62;100894.05;1644467;85;20928;-76
2022/06/26 07:49:16;;;;;;;4.62;3.42;;;;;;;38.94;29.34;100898.68;1648217;86;20981;-76
2022/06/26 07:51:43;;;;;;;3.52;3.22;;;;;;;38.12;29.06;100905.91;1617736;87;20955;-76
2022/06/26 07:54:09;;;;;;;5.20;3.67;;;;;;;37.53;29.34;100900.86;1646209;85;20970;-76
2022/06/26 07:56:36;;;;;;;6.62;3.58;;;;;;;37.05;29.24;100899.22;1649661;85;20957;-76
2022/06/26 07:59:03;;;;;;;7.92;3.65;;;;;;;36.90;29.25;100897.94;1645415;85;20900;-76
2022/06/26 08:01:29;;;;;;;;;;;;;;;36.77;29.12;100896.42;1645643;85;20946;-76
2022/06/26 08:03:55;;;;;;;7.45;3.85;;;;;;;36.62;29.37;100892.88;1642891;86;20582;-76
2022/06/26 08:06:22;;;;;;;4.20;3.50;;;;;;;36.66;29.24;100890.97;1640753;87;20955;-76
2022/06/26 08:08:48;;;;;;;3.75;3.45;;;;;;;36.77;29.11;100889.69;1617400;88;20928;-76
2022/06/26 08:11:14;;;;;;;4.67;3.40;;;;;;;37.02;29.13;100889.64;1646910;86;20958;-76
2022/06/26 08:13:41;;;;;;;;;;;;;;;37.20;28.82;100895.96;1646560;86;20993;-76
2022/06/26 08:16:07;;;;;;;3.90;3.50;;;;;;;37.22;28.83;100885.02;1644513;87;20144;-76
2022/06/26 08:18:33;;;;;;;3.75;3.40;;;;;;;37.03;28.83;100889.97;1644783;85;20876;-76
2022/06/26 08:22:00;;;;;;;5.87;3.10;;;;;;;37.14;28.59;100891.33;1648897;84;20896;-76
2022/06/26 08:23:27;;;;;;;3.25;2.80;;;;;;;37.12;28.74;100886.12;1697034;83;20886;-76
2022/06/26 08:25:53;;;;;;;4.03;3.17;;;;;;;37.30;28.60;100897.03;1672573;84;21790;-76
2022/06/26 08:28:19;;;;;;;4.37;3.05;;;;;;;37.45;28.17;100890.52;1677420;82;20977;-77
2022/06/26 08:30:44;;;;;;;3.50;3.20;;;;;;;37.45;28.26;100895.91;1690754;83;21701;-78
2022/06/26 08:33:10;;;;;;;3.77;3.20;;;;;;;37.31;27.84;100895.48;1686153;83;20855;-77
2022/06/26 08:35:40;;;;;;;3.42;3.12;;;;;;;37.07;28.14;100895.30;1690892;83;20887;-80
2022/06/26 08:38:07;;;;;;;4.17;2.77;;;;;;;37.24;28.10;100891.89;1686435;83;21365;-77
2022/06/26 08:40:34;;;;;;;5.53;3.22;;;;;;;37.36;27.95;100894.91;1695569;83;21297;-77
2022/06/26 08:43:02;;;;;;;4.58;3.25;;;;;;;37.44;28.09;100892.05;1691226;83;20909;-77
2022/06/26 08:45:29;;;;;;;3.02;2.52;;;;;;;37.63;27.86;100894.10;1691167;83;20915;-77
2022/06/26 08:47:59;;;;;;;3.60;3.30;;;;;;;37.85;27.78;100897.64;1692016;83;20936;-77
2022/06/26 08:50:26;;;;;;;7.03;3.12;;;;;;;38.01;27.52;100900.53;1692894;83;20917;-77
2022/06/26 08:52:53;;;;;;;3.55;3.00;;;;;;;38.01;27.67;100891.92;1696942;82;20863;-77
2022/06/26 08:55:20;;;;;;;5.37;3.20;;;;;;;38.12;27.36;100891.05;1690519;83;20930;-77
2022/06/26 08:57:48;;;;;;;4.10;2.77;;;;;;;38.04;27.39;100887.98;1684696;83;21270;-77
2022/06/26 09:00:16;;;;;;;3.72;2.83;;;;;;;38.03;27.24;100891.20;1691603;82;20973;-77
2022/06/26 09:02:46;;;;;;;4.47;2.72;;;;;;;38.00;27.28;100889.41;1687944;83;20945;-77
2022/06/26 09:05:13;;;;;;;7.55;3.00;;;;;;;37.89;27.28;100890.82;1692197;83;21077;-77
2022/06/26 09:07:52;;;;;;;4.70;2.67;;;;;;;37.93;27.28;100885.86;1690221;84;21105;-77
2022/06/26 09:10:21;;;;;;;3.42;2.85;;;;;;;37.74;27.01;100892.26;1666278;84;38051;-77
2022/06/26 09:12:56;;;;;;;4.00;2.45;;;;;;;37.52;27.10;100889.73;1686709;83;21077;-77
2022/06/26 09:15:24;;;;;;;3.35;2.50;;;;;;;37.08;26.61;100888.89;1700205;83;21127;-77
2022/06/26 09:18:04;;;;;;;3.12;2.92;;;;;;;36.16;27.01;100887.67;1682572;83;21273;-77
2022/06/26 09:20:34;;;;;;;5.35;2.85;;;;;;;35.63;27.34;100888.67;1682437;83;21073;-77
2022/06/26 09:23:03;;;;;;;6.75;2.98;;;;;;;35.24;27.40;100884.76;1692589;83;21697;-77
2022/06/26 09:25:38;;;;;;;3.20;2.42;;;;;;;34.86;27.52;100885.98;1701577;82;21076;-77
2022/06/26 09:28:16;;;;;;;4.55;3.20;;;;;;;34.49;27.60;100881.27;1711383;83;20971;-77
2022/06/26 09:30:58;;;;;;;3.40;2.70;;;;;;;34.21;27.72;100888.89;1696368;83;21120;-77
2022/06/26 09:33:35;;;;;;;4.85;3.05;;;;;;;33.88;27.80;100888.94;1704006;82;21051;-77
2022/06/26 09:36:04;;;;;;;2.98;2.47;;;;;;;33.64;27.88;100886.27;1713003;82;21548;-77
2022/06/26 09:38:33;;;;;;;6.83;2.80;;;;;;;33.34;27.89;100885.06;1714341;83;21362;-77
2022/06/26 09:41:03;;;;;;;5.05;3.10;;;;;;;32.94;28.17;100879.61;1681535;84;20918;-77
2022/06/26 09:43:35;;;;;;;5.55;2.83;;;;;;;32.75;28.31;100881.58;1674003;84;20969;-77
2022/06/26 09:46:07;;;;;;;6.22;2.87;;;;;;;32.64;28.39;100879.66;1709633;83;20917;-77
2022/06/26 09:48:34;;;;;;;4.25;2.50;;;;;;;32.54;28.54;100877.95;1673517;84;21106;-77
2022/06/26 09:51:01;;;;;;;3.12;2.83;;;;;;;32.58;28.64;100882.48;1719473;81;21386;-77
2022/06/26 09:53:28;;;;;;;2.62;2.37;;;;;;;32.60;28.88;100878.30;1637661;82;5000522;-77
2022/06/26 09:55:57;;;;;;;3.27;2.80;;;;;;;32.63;28.87;100876.14;1657938;84;20932;-77
2022/06/26 09:58:25;;;;;;;5.83;3.08;;;;;;;32.66;28.92;100871.80;1691799;83;20878;-77
2022/06/26 10:06:28;;;;;;;2.62;2.42;;;;;;;32.51;29.01;100874.75;1671525;83;20979;-77
2022/06/26 10:09:08;;;;;;;5.28;2.60;;;;;;;32.18;29.17;100871.89;1684563;83;20954;-77
2022/06/26 10:11:40;;;;;;;4.00;2.50;;;;;;;32.02;29.37;100874.46;1661967;84;20935;-77
2022/06/26 10:14:19;;;;;;;3.45;2.65;;;;;;;31.95;29.40;100865.38;1682474;83;20981;-77
2022/06/26 10:17:14;;;;;;;3.17;2.80;;;;;;;31.84;29.37;100865.14;1651183;85;20898;-77
2022/06/26 10:20:01;;;;;;;8.05;2.60;;;;;;;31.79;29.53;100870.11;1680147;83;20926;-77
2022/06/26 10:22:44;;;;;;;3.02;2.67;;;;;;;31.58;29.59;100863.76;1669810;85;20887;-77
2022/06/26 10:25:28;;;;;;;3.22;2.35;;;;;;;31.54;29.76;100861.55;1670507;83;21344;-77
2022/06/26 10:28:14;;;;;;;3.90;2.60;;;;;;;31.48;29.77;100864.34;1644843;85;21327;-77
2022/06/26 10:30:40;;;;;;;2.55;2.35;;;;;;;31.47;29.86;100862.66;1615885;86;20906;-77
2022/06/26 10:33:20;;;;;;;2.70;2.50;;;;;;;31.51;29.81;100863.19;1609599;86;20954;-77
2022/06/26 10:35:49;;;;;;;5.28;2.60;;;;;;;31.48;29.86;100856.31;1618186;87;20980;-76
2022/06/26 10:38:22;;;;;;;5.92;2.35;;;;;;;31.52;29.93;100862.20;1638218;85;20994;-76
2022/06/26 10:44:15;;;;;;;3.85;2.83;;;;;;;31.51;30.17;100855.17;1626844;88;21037;-76
2022/06/26 10:46:49;;;;;;;5.20;2.30;;;;;;;31.47;30.34;100865.33;1622242;86;21080;-75
2022/06/26 10:49:21;;;;;;;3.58;2.55;;;;;;;31.53;30.28;100862.54;1630034;86;20938;-75
2022/06/26 10:51:47;;;;;;;2.67;2.47;;;;;;;31.56;30.30;100864.91;1629426;86;20864;-74
2022/06/26 10:54:24;;;;;;;2.92;2.60;;;;;;;31.54;30.32;100867.73;1626598;86;21050;-74
2022/06/26 10:57:08;;;;;;;5.00;2.85;;;;;;;31.51;30.42;100864.53;1620715;86;21042;-74
2022/06/26 10:59:41;;;;;;;3.37;3.08;;;;;;;31.49;30.46;100865.17;1641684;84;120160;-74
2022/06/26 11:02:15;;;;;;;3.10;2.40;;;;;;;31.56;30.58;100861.73;1650547;85;21152;-74
2022/06/26 11:04:49;;;;;;;2.55;2.33;;;;;;;31.75;30.58;100867.41;1652654;84;21454;-74
2022/06/26 11:07:18;;;;;;;3.20;2.25;;;;;;;31.95;30.34;100865.38;1654918;85;21550;-75
2022/06/26 11:09:44;;;;;;;3.27;2.90;;;;;;;32.06;30.23;100862.95;1629682;86;21056;-75
2022/06/26 11:12:12;;;;;;;5.78;3.00;;;;;;;32.12;30.07;100869.84;1645601;85;21520;-75
2022/06/26 11:14:38;;;;;;;4.33;2.40;;;;;;;32.00;30.07;100872.44;1652486;84;21523;-75
2022/06/26 11:17:06;;;;;;;2.35;2.25;;;;;;;31.96;30.24;100872.91;1657821;84;21038;-75
2022/06/26 11:22:20;;;;;;;2.90;2.42;;;;;;;31.94;30.19;100867.72;1678557;81;21565;-75
2022/06/26 11:24:52;;;;;;;3.45;2.72;;;;;;;31.99;30.10;100864.57;1727428;81;20919;-75
2022/06/26 11:27:23;;;;;;;5.90;2.50;;;;;;;32.02;30.09;100864.26;1718625;81;21338;-75
2022/06/26 11:29:52;;;;;;;3.15;2.08;;;;;;;32.04;29.91;100862.27;1725484;81;20866;-75
2022/06/26 11:32:23;;;;;;;5.05;2.20;;;;;;;32.04;29.97;100867.11;1726638;81;20989;-75
2022/06/26 11:34:53;;;;;;;3.25;2.27;;;;;;;31.99;30.07;100868.58;1713005;81;21620;-75
2022/06/26 11:37:38;;;;;;;3.35;2.35;;;;;;;31.96;30.12;100864.39;1723357;81;20902;-75
2022/06/26 11:40:19;;;;;;;2.62;2.30;;;;;;;32.00;30.07;100859.56;1728455;81;20976;-75
2022/06/26 11:42:45;;;;;;;3.50;2.25;;;;;;;32.00;29.97;100863.08;1726635;81;20912;-75
2022/06/26 11:45:31;;;;;;;2.33;2.10;;;;;;;32.04;29.76;100867.61;1726851;81;20882;-75
2022/06/26 11:47:54;;;;;;;5.55;2.05;;;;;;;31.98;29.62;100864.23;1726328;83;20891;-76